sensor_id;sensor_type;location;lat;lon;timestamp;P1;durP1;ratioP1;P2;durP2;ratioP2
28627;SDS011;15815;46.760;19.604;2024-03-02T00:01:06;32.78;;;14.65;;
28627;SDS011;15815;46.760;19.604;2024-03-02T00:03:32;30.05;;;13.70;;
28627;SDS011;15815;46.760;19.604;2024-03-02T00:05:57;29.35;;;13.90;;
28627;SDS011;15815;46.760;19.604;2024-03-02T00:08:23;28.25;;;13.48;;
28627;SDS011;15815;46.760;19.604;2024-03-02T00:10:50;28.08;;;13.40;;
28627;SDS011;15815;46.760;19.604;2024-03-02T00:13:15;25.73;;;13.55;;
28627;SDS011;15815;46.760;19.604;2024-03-02T00:15:48;27.75;;;13.38;;
28627;SDS011;15815;46.760;19.604;2024-03-02T00:18:35;27.65;;;13.43;;
28627;SDS011;15815;46.760;19.604;2024-03-02T00:21:01;26.17;;;12.85;;
28627;SDS011;15815;46.760;19.604;2024-03-02T00:23:31;26.77;;;13.00;;
28627;SDS011;15815;46.760;19.604;2024-03-02T00:26:00;33.53;;;14.25;;
28627;SDS011;15815;46.760;19.604;2024-03-02T00:31:03;28.27;;;14.57;;
28627;SDS011;15815;46.760;19.604;2024-03-02T00:33:33;28.70;;;14.85;;
28627;SDS011;15815;46.760;19.604;2024-03-02T00:36:01;28.20;;;14.27;;
28627;SDS011;15815;46.760;19.604;2024-03-02T00:38:30;26.35;;;14.05;;
28627;SDS011;15815;46.760;19.604;2024-03-02T00:40:59;26.17;;;14.05;;
28627;SDS011;15815;46.760;19.604;2024-03-02T00:46:16;32.58;;;14.95;;
28627;SDS011;15815;46.760;19.604;2024-03-02T00:48:50;26.30;;;13.73;;
28627;SDS011;15815;46.760;19.604;2024-03-02T00:51:24;32.03;;;14.90;;
28627;SDS011;15815;46.760;19.604;2024-03-02T00:54:00;30.27;;;14.63;;
28627;SDS011;15815;46.760;19.604;2024-03-02T00:56:30;30.88;;;13.68;;
28627;SDS011;15815;46.760;19.604;2024-03-02T00:59:10;31.13;;;14.55;;
28627;SDS011;15815;46.760;19.604;2024-03-02T01:01:36;29.73;;;14.20;;
28627;SDS011;15815;46.760;19.604;2024-03-02T01:04:02;28.67;;;15.20;;
28627;SDS011;15815;46.760;19.604;2024-03-02T01:06:44;27.88;;;13.77;;
28627;SDS011;15815;46.760;19.604;2024-03-02T01:09:09;30.67;;;14.98;;
28627;SDS011;15815;46.760;19.604;2024-03-02T01:11:35;32.13;;;16.08;;
28627;SDS011;15815;46.760;19.604;2024-03-02T01:14:07;30.67;;;15.60;;
28627;SDS011;15815;46.760;19.604;2024-03-02T01:16:33;28.00;;;14.63;;
28627;SDS011;15815;46.760;19.604;2024-03-02T01:18:58;33.60;;;15.10;;
28627;SDS011;15815;46.760;19.604;2024-03-02T01:24:42;29.98;;;15.02;;
28627;SDS011;15815;46.760;19.604;2024-03-02T01:27:08;28.35;;;14.32;;
28627;SDS011;15815;46.760;19.604;2024-03-02T01:29:34;27.95;;;13.32;;
28627;SDS011;15815;46.760;19.604;2024-03-02T01:31:59;32.78;;;14.75;;
28627;SDS011;15815;46.760;19.604;2024-03-02T01:34:25;28.48;;;14.88;;
28627;SDS011;15815;46.760;19.604;2024-03-02T01:36:50;30.00;;;15.15;;
28627;SDS011;15815;46.760;19.604;2024-03-02T01:39:16;28.27;;;15.25;;
28627;SDS011;15815;46.760;19.604;2024-03-02T01:41:41;31.83;;;15.25;;
28627;SDS011;15815;46.760;19.604;2024-03-02T01:44:07;29.20;;;15.02;;
28627;SDS011;15815;46.760;19.604;2024-03-02T01:46:32;29.05;;;15.27;;
28627;SDS011;15815;46.760;19.604;2024-03-02T01:48:58;29.65;;;14.70;;
28627;SDS011;15815;46.760;19.604;2024-03-02T01:51:28;27.23;;;14.25;;
28627;SDS011;15815;46.760;19.604;2024-03-02T01:53:53;28.88;;;15.50;;
28627;SDS011;15815;46.760;19.604;2024-03-02T01:56:25;34.47;;;14.88;;
28627;SDS011;15815;46.760;19.604;2024-03-02T01:58:50;28.83;;;15.38;;
28627;SDS011;15815;46.760;19.604;2024-03-02T02:03:46;28.63;;;15.32;;
28627;SDS011;15815;46.760;19.604;2024-03-02T02:08:43;28.55;;;14.63;;
28627;SDS011;15815;46.760;19.604;2024-03-02T02:11:09;29.25;;;14.88;;
28627;SDS011;15815;46.760;19.604;2024-03-02T02:13:35;26.67;;;15.18;;
28627;SDS011;15815;46.760;19.604;2024-03-02T02:16:04;29.40;;;14.55;;
28627;SDS011;15815;46.760;19.604;2024-03-02T02:18:33;33.25;;;15.80;;
28627;SDS011;15815;46.760;19.604;2024-03-02T02:20:59;29.88;;;15.13;;
28627;SDS011;15815;46.760;19.604;2024-03-02T02:23:25;32.45;;;15.77;;
28627;SDS011;15815;46.760;19.604;2024-03-02T02:25:51;29.27;;;15.80;;
28627;SDS011;15815;46.760;19.604;2024-03-02T02:28:17;29.10;;;14.70;;
28627;SDS011;15815;46.760;19.604;2024-03-02T02:30:59;26.45;;;14.52;;
28627;SDS011;15815;46.760;19.604;2024-03-02T02:33:27;27.73;;;14.63;;
28627;SDS011;15815;46.760;19.604;2024-03-02T02:35:53;25.02;;;14.38;;
28627;SDS011;15815;46.760;19.604;2024-03-02T02:38:22;25.52;;;13.80;;
28627;SDS011;15815;46.760;19.604;2024-03-02T02:40:48;28.98;;;13.30;;
28627;SDS011;15815;46.760;19.604;2024-03-02T02:43:13;26.90;;;14.07;;
28627;SDS011;15815;46.760;19.604;2024-03-02T02:45:46;27.02;;;13.80;;
28627;SDS011;15815;46.760;19.604;2024-03-02T02:48:12;26.08;;;13.80;;
28627;SDS011;15815;46.760;19.604;2024-03-02T02:50:37;32.83;;;14.77;;
28627;SDS011;15815;46.760;19.604;2024-03-02T02:53:03;28.08;;;14.63;;
28627;SDS011;15815;46.760;19.604;2024-03-02T02:55:28;27.70;;;14.38;;
28627;SDS011;15815;46.760;19.604;2024-03-02T02:57:55;27.02;;;13.95;;
28627;SDS011;15815;46.760;19.604;2024-03-02T03:00:24;24.92;;;13.57;;
28627;SDS011;15815;46.760;19.604;2024-03-02T03:02:49;29.63;;;13.70;;
28627;SDS011;15815;46.760;19.604;2024-03-02T03:05:15;23.95;;;12.07;;
28627;SDS011;15815;46.760;19.604;2024-03-02T03:07:41;27.08;;;14.35;;
28627;SDS011;15815;46.760;19.604;2024-03-02T03:10:07;26.45;;;13.18;;
28627;SDS011;15815;46.760;19.604;2024-03-02T03:12:33;27.08;;;13.48;;
28627;SDS011;15815;46.760;19.604;2024-03-02T03:14:59;31.63;;;12.80;;
28627;SDS011;15815;46.760;19.604;2024-03-02T03:17:29;31.73;;;14.45;;
28627;SDS011;15815;46.760;19.604;2024-03-02T03:19:58;27.35;;;14.25;;
28627;SDS011;15815;46.760;19.604;2024-03-02T03:22:23;21.90;;;12.70;;
28627;SDS011;15815;46.760;19.604;2024-03-02T03:24:59;26.65;;;13.52;;
28627;SDS011;15815;46.760;19.604;2024-03-02T03:27:24;23.55;;;13.65;;
28627;SDS011;15815;46.760;19.604;2024-03-02T03:29:50;23.92;;;13.13;;
28627;SDS011;15815;46.760;19.604;2024-03-02T03:32:22;27.05;;;13.77;;
28627;SDS011;15815;46.760;19.604;2024-03-02T03:34:47;24.70;;;13.45;;
28627;SDS011;15815;46.760;19.604;2024-03-02T03:37:13;24.15;;;13.60;;
28627;SDS011;15815;46.760;19.604;2024-03-02T03:39:38;30.85;;;13.75;;
28627;SDS011;15815;46.760;19.604;2024-03-02T03:42:04;26.17;;;13.85;;
28627;SDS011;15815;46.760;19.604;2024-03-02T03:47:18;25.40;;;13.57;;
28627;SDS011;15815;46.760;19.604;2024-03-02T03:49:43;25.80;;;14.07;;
28627;SDS011;15815;46.760;19.604;2024-03-02T03:52:09;24.50;;;13.48;;
28627;SDS011;15815;46.760;19.604;2024-03-02T03:54:34;24.88;;;14.52;;
28627;SDS011;15815;46.760;19.604;2024-03-02T03:57:00;28.98;;;14.80;;
28627;SDS011;15815;46.760;19.604;2024-03-02T03:59:25;21.02;;;13.32;;
28627;SDS011;15815;46.760;19.604;2024-03-02T04:01:51;27.10;;;12.85;;
28627;SDS011;15815;46.760;19.604;2024-03-02T04:04:16;24.75;;;13.35;;
28627;SDS011;15815;46.760;19.604;2024-03-02T04:06:43;24.92;;;13.88;;
28627;SDS011;15815;46.760;19.604;2024-03-02T04:09:08;22.92;;;12.95;;
28627;SDS011;15815;46.760;19.604;2024-03-02T04:11:34;20.60;;;12.00;;
28627;SDS011;15815;46.760;19.604;2024-03-02T04:16:28;25.08;;;13.27;;
28627;SDS011;15815;46.760;19.604;2024-03-02T04:18:54;20.85;;;11.45;;
28627;SDS011;15815;46.760;19.604;2024-03-02T04:21:19;24.65;;;12.55;;
28627;SDS011;15815;46.760;19.604;2024-03-02T04:23:45;22.02;;;12.70;;
28627;SDS011;15815;46.760;19.604;2024-03-02T04:26:10;21.10;;;11.80;;
28627;SDS011;15815;46.760;19.604;2024-03-02T04:28:36;23.95;;;13.23;;
28627;SDS011;15815;46.760;19.604;2024-03-02T04:31:01;23.83;;;12.98;;
28627;SDS011;15815;46.760;19.604;2024-03-02T04:33:27;25.52;;;13.90;;
28627;SDS011;15815;46.760;19.604;2024-03-02T04:35:53;22.70;;;12.35;;
28627;SDS011;15815;46.760;19.604;2024-03-02T04:38:28;22.77;;;12.43;;
28627;SDS011;15815;46.760;19.604;2024-03-02T04:40:54;19.38;;;11.88;;
28627;SDS011;15815;46.760;19.604;2024-03-02T04:43:19;21.45;;;13.00;;
28627;SDS011;15815;46.760;19.604;2024-03-02T04:48:34;25.45;;;13.05;;
28627;SDS011;15815;46.760;19.604;2024-03-02T04:51:11;22.30;;;12.25;;
28627;SDS011;15815;46.760;19.604;2024-03-02T04:53:37;25.00;;;12.73;;
28627;SDS011;15815;46.760;19.604;2024-03-02T04:56:03;20.38;;;11.77;;
28627;SDS011;15815;46.760;19.604;2024-03-02T04:58:30;20.83;;;11.48;;
28627;SDS011;15815;46.760;19.604;2024-03-02T05:00:55;20.30;;;11.65;;
28627;SDS011;15815;46.760;19.604;2024-03-02T05:03:21;21.67;;;12.75;;
28627;SDS011;15815;46.760;19.604;2024-03-02T05:05:49;22.55;;;12.60;;
28627;SDS011;15815;46.760;19.604;2024-03-02T05:08:15;23.00;;;12.63;;
28627;SDS011;15815;46.760;19.604;2024-03-02T05:10:40;21.70;;;12.48;;
28627;SDS011;15815;46.760;19.604;2024-03-02T05:15:53;19.67;;;11.93;;
28627;SDS011;15815;46.760;19.604;2024-03-02T05:18:19;23.88;;;13.07;;
28627;SDS011;15815;46.760;19.604;2024-03-02T05:20:55;24.27;;;12.60;;
28627;SDS011;15815;46.760;19.604;2024-03-02T05:23:20;22.10;;;12.57;;
28627;SDS011;15815;46.760;19.604;2024-03-02T05:25:45;20.85;;;12.13;;
28627;SDS011;15815;46.760;19.604;2024-03-02T05:28:11;19.75;;;11.48;;
28627;SDS011;15815;46.760;19.604;2024-03-02T05:30:37;22.00;;;11.20;;
28627;SDS011;15815;46.760;19.604;2024-03-02T05:33:02;19.85;;;11.73;;
28627;SDS011;15815;46.760;19.604;2024-03-02T05:35:40;18.80;;;11.57;;
28627;SDS011;15815;46.760;19.604;2024-03-02T05:38:05;21.65;;;12.18;;
28627;SDS011;15815;46.760;19.604;2024-03-02T05:40:31;22.70;;;12.18;;
28627;SDS011;15815;46.760;19.604;2024-03-02T05:45:41;23.75;;;12.35;;
28627;SDS011;15815;46.760;19.604;2024-03-02T05:48:07;23.10;;;13.45;;
28627;SDS011;15815;46.760;19.604;2024-03-02T05:53:23;19.00;;;11.65;;
28627;SDS011;15815;46.760;19.604;2024-03-02T05:55:49;18.65;;;10.98;;
28627;SDS011;15815;46.760;19.604;2024-03-02T05:58:14;17.77;;;10.90;;
28627;SDS011;15815;46.760;19.604;2024-03-02T06:00:43;18.27;;;11.30;;
28627;SDS011;15815;46.760;19.604;2024-03-02T06:03:08;21.77;;;11.18;;
28627;SDS011;15815;46.760;19.604;2024-03-02T06:05:34;20.30;;;12.40;;
28627;SDS011;15815;46.760;19.604;2024-03-02T06:07:59;22.48;;;11.57;;
28627;SDS011;15815;46.760;19.604;2024-03-02T06:10:25;19.80;;;11.30;;
28627;SDS011;15815;46.760;19.604;2024-03-02T06:12:50;19.95;;;11.52;;
28627;SDS011;15815;46.760;19.604;2024-03-02T06:15:20;21.48;;;10.75;;
28627;SDS011;15815;46.760;19.604;2024-03-02T06:17:45;22.38;;;11.75;;
28627;SDS011;15815;46.760;19.604;2024-03-02T06:20:11;22.15;;;12.50;;
28627;SDS011;15815;46.760;19.604;2024-03-02T06:22:39;23.63;;;12.20;;
28627;SDS011;15815;46.760;19.604;2024-03-02T06:25:04;19.55;;;11.77;;
28627;SDS011;15815;46.760;19.604;2024-03-02T06:27:30;22.48;;;11.68;;
28627;SDS011;15815;46.760;19.604;2024-03-02T06:30:10;17.15;;;11.25;;
28627;SDS011;15815;46.760;19.604;2024-03-02T06:32:36;21.17;;;12.60;;
28627;SDS011;15815;46.760;19.604;2024-03-02T06:35:04;19.00;;;10.98;;
28627;SDS011;15815;46.760;19.604;2024-03-02T06:37:30;18.42;;;10.98;;
28627;SDS011;15815;46.760;19.604;2024-03-02T06:39:56;19.10;;;11.40;;
28627;SDS011;15815;46.760;19.604;2024-03-02T06:42:21;19.40;;;11.20;;
28627;SDS011;15815;46.760;19.604;2024-03-02T06:44:55;50.92;;;25.70;;
28627;SDS011;15815;46.760;19.604;2024-03-02T06:47:24;25.23;;;13.40;;
28627;SDS011;15815;46.760;19.604;2024-03-02T06:49:49;21.40;;;12.45;;
28627;SDS011;15815;46.760;19.604;2024-03-02T06:52:29;18.65;;;11.35;;
28627;SDS011;15815;46.760;19.604;2024-03-02T06:54:54;23.02;;;11.35;;
28627;SDS011;15815;46.760;19.604;2024-03-02T06:57:20;19.00;;;11.27;;
28627;SDS011;15815;46.760;19.604;2024-03-02T06:59:51;18.67;;;11.23;;
28627;SDS011;15815;46.760;19.604;2024-03-02T07:02:16;18.23;;;11.63;;
28627;SDS011;15815;46.760;19.604;2024-03-02T07:04:42;21.75;;;13.32;;
28627;SDS011;15815;46.760;19.604;2024-03-02T07:07:09;23.73;;;13.82;;
28627;SDS011;15815;46.760;19.604;2024-03-02T07:09:37;18.48;;;11.05;;
28627;SDS011;15815;46.760;19.604;2024-03-02T07:12:03;19.05;;;11.20;;
28627;SDS011;15815;46.760;19.604;2024-03-02T07:14:28;14.88;;;9.55;;
28627;SDS011;15815;46.760;19.604;2024-03-02T07:16:54;19.60;;;10.57;;
28627;SDS011;15815;46.760;19.604;2024-03-02T07:19:19;14.93;;;9.82;;
28627;SDS011;15815;46.760;19.604;2024-03-02T07:21:45;15.85;;;9.73;;
28627;SDS011;15815;46.760;19.604;2024-03-02T07:24:10;18.15;;;10.65;;
28627;SDS011;15815;46.760;19.604;2024-03-02T07:26:36;15.15;;;10.00;;
28627;SDS011;15815;46.760;19.604;2024-03-02T07:29:01;20.95;;;12.98;;
28627;SDS011;15815;46.760;19.604;2024-03-02T07:31:27;25.10;;;10.85;;
28627;SDS011;15815;46.760;19.604;2024-03-02T07:33:52;17.35;;;10.57;;
28627;SDS011;15815;46.760;19.604;2024-03-02T07:36:18;15.88;;;10.07;;
28627;SDS011;15815;46.760;19.604;2024-03-02T07:38:44;16.13;;;10.02;;
28627;SDS011;15815;46.760;19.604;2024-03-02T07:41:24;15.85;;;10.00;;
28627;SDS011;15815;46.760;19.604;2024-03-02T07:43:50;16.58;;;9.68;;
28627;SDS011;15815;46.760;19.604;2024-03-02T07:46:16;15.25;;;9.48;;
28627;SDS011;15815;46.760;19.604;2024-03-02T07:48:48;14.02;;;9.10;;
28627;SDS011;15815;46.760;19.604;2024-03-02T07:51:14;16.08;;;10.40;;
28627;SDS011;15815;46.760;19.604;2024-03-02T07:56:33;16.67;;;10.25;;
28627;SDS011;15815;46.760;19.604;2024-03-02T08:03:57;15.82;;;9.25;;
28627;SDS011;15815;46.760;19.604;2024-03-02T08:06:27;17.92;;;9.63;;
28627;SDS011;15815;46.760;19.604;2024-03-02T08:08:56;13.98;;;9.50;;
28627;SDS011;15815;46.760;19.604;2024-03-02T08:11:40;16.92;;;9.77;;
28627;SDS011;15815;46.760;19.604;2024-03-02T08:14:06;13.88;;;9.45;;
28627;SDS011;15815;46.760;19.604;2024-03-02T08:19:37;17.85;;;11.75;;
28627;SDS011;15815;46.760;19.604;2024-03-02T08:22:14;13.82;;;9.77;;
28627;SDS011;15815;46.760;19.604;2024-03-02T08:24:40;17.17;;;9.75;;
28627;SDS011;15815;46.760;19.604;2024-03-02T08:27:23;23.25;;;10.65;;
28627;SDS011;15815;46.760;19.604;2024-03-02T08:29:49;18.50;;;10.75;;
28627;SDS011;15815;46.760;19.604;2024-03-02T08:32:23;16.40;;;9.95;;
28627;SDS011;15815;46.760;19.604;2024-03-02T08:34:48;15.93;;;10.05;;
28627;SDS011;15815;46.760;19.604;2024-03-02T08:37:14;16.90;;;9.60;;
28627;SDS011;15815;46.760;19.604;2024-03-02T08:39:39;16.17;;;9.68;;
28627;SDS011;15815;46.760;19.604;2024-03-02T08:42:05;17.27;;;10.27;;
28627;SDS011;15815;46.760;19.604;2024-03-02T08:44:31;14.77;;;9.63;;
28627;SDS011;15815;46.760;19.604;2024-03-02T08:46:56;14.23;;;9.48;;
28627;SDS011;15815;46.760;19.604;2024-03-02T08:49:22;15.35;;;9.68;;
28627;SDS011;15815;46.760;19.604;2024-03-02T08:51:48;15.63;;;8.48;;
28627;SDS011;15815;46.760;19.604;2024-03-02T08:54:14;19.80;;;9.18;;
28627;SDS011;15815;46.760;19.604;2024-03-02T08:56:39;15.75;;;9.10;;
28627;SDS011;15815;46.760;19.604;2024-03-02T08:59:05;15.90;;;9.32;;
28627;SDS011;15815;46.760;19.604;2024-03-02T09:01:34;16.98;;;10.27;;
28627;SDS011;15815;46.760;19.604;2024-03-02T09:04:00;18.17;;;9.13;;
28627;SDS011;15815;46.760;19.604;2024-03-02T09:06:25;16.90;;;9.90;;
28627;SDS011;15815;46.760;19.604;2024-03-02T09:08:51;14.25;;;9.23;;
28627;SDS011;15815;46.760;19.604;2024-03-02T09:11:17;16.20;;;9.45;;
28627;SDS011;15815;46.760;19.604;2024-03-02T09:13:55;17.48;;;9.45;;
28627;SDS011;15815;46.760;19.604;2024-03-02T09:16:21;17.52;;;9.60;;
28627;SDS011;15815;46.760;19.604;2024-03-02T09:18:48;18.65;;;10.50;;
28627;SDS011;15815;46.760;19.604;2024-03-02T09:21:14;16.38;;;9.63;;
28627;SDS011;15815;46.760;19.604;2024-03-02T09:23:41;16.83;;;9.88;;
28627;SDS011;15815;46.760;19.604;2024-03-02T09:26:06;15.80;;;9.25;;
28627;SDS011;15815;46.760;19.604;2024-03-02T09:28:32;13.80;;;9.15;;
28627;SDS011;15815;46.760;19.604;2024-03-02T09:30:58;16.08;;;9.98;;
28627;SDS011;15815;46.760;19.604;2024-03-02T09:33:23;16.55;;;9.90;;
28627;SDS011;15815;46.760;19.604;2024-03-02T09:38:58;16.27;;;9.70;;
28627;SDS011;15815;46.760;19.604;2024-03-02T09:41:23;16.55;;;10.43;;
28627;SDS011;15815;46.760;19.604;2024-03-02T09:43:50;16.80;;;10.45;;
28627;SDS011;15815;46.760;19.604;2024-03-02T09:46:16;18.17;;;10.70;;
28627;SDS011;15815;46.760;19.604;2024-03-02T09:48:44;20.88;;;10.45;;
28627;SDS011;15815;46.760;19.604;2024-03-02T09:51:16;13.10;;;8.48;;
28627;SDS011;15815;46.760;19.604;2024-03-02T09:53:47;20.63;;;10.35;;
28627;SDS011;15815;46.760;19.604;2024-03-02T09:56:14;19.95;;;10.88;;
28627;SDS011;15815;46.760;19.604;2024-03-02T09:58:39;15.38;;;10.27;;
28627;SDS011;15815;46.760;19.604;2024-03-02T10:01:06;15.82;;;10.00;;
28627;SDS011;15815;46.760;19.604;2024-03-02T10:03:31;16.60;;;9.98;;
28627;SDS011;15815;46.760;19.604;2024-03-02T10:08:48;18.05;;;10.55;;
28627;SDS011;15815;46.760;19.604;2024-03-02T10:11:27;16.40;;;9.77;;
28627;SDS011;15815;46.760;19.604;2024-03-02T10:14:03;17.73;;;10.27;;
28627;SDS011;15815;46.760;19.604;2024-03-02T10:16:39;24.47;;;11.63;;
28627;SDS011;15815;46.760;19.604;2024-03-02T10:19:24;18.05;;;11.38;;
28627;SDS011;15815;46.760;19.604;2024-03-02T10:21:50;16.50;;;9.82;;
28627;SDS011;15815;46.760;19.604;2024-03-02T10:24:17;18.40;;;10.82;;
28627;SDS011;15815;46.760;19.604;2024-03-02T10:26:43;17.30;;;10.30;;
28627;SDS011;15815;46.760;19.604;2024-03-02T10:29:09;17.40;;;9.70;;
28627;SDS011;15815;46.760;19.604;2024-03-02T10:31:37;15.07;;;8.73;;
28627;SDS011;15815;46.760;19.604;2024-03-02T10:34:22;16.23;;;8.98;;
28627;SDS011;15815;46.760;19.604;2024-03-02T10:36:47;14.85;;;8.15;;
28627;SDS011;15815;46.760;19.604;2024-03-02T10:39:13;12.93;;;8.15;;
28627;SDS011;15815;46.760;19.604;2024-03-02T10:41:45;15.82;;;8.65;;
28627;SDS011;15815;46.760;19.604;2024-03-02T10:44:14;13.50;;;8.48;;
28627;SDS011;15815;46.760;19.604;2024-03-02T10:46:41;16.48;;;10.02;;
28627;SDS011;15815;46.760;19.604;2024-03-02T10:49:11;14.45;;;9.00;;
28627;SDS011;15815;46.760;19.604;2024-03-02T10:51:36;17.92;;;10.52;;
28627;SDS011;15815;46.760;19.604;2024-03-02T10:56:47;18.33;;;10.50;;
28627;SDS011;15815;46.760;19.604;2024-03-02T11:02:01;16.27;;;9.05;;
28627;SDS011;15815;46.760;19.604;2024-03-02T11:04:30;16.02;;;10.00;;
28627;SDS011;15815;46.760;19.604;2024-03-02T11:09:36;18.85;;;10.60;;
28627;SDS011;15815;46.760;19.604;2024-03-02T11:14:36;17.30;;;9.27;;
28627;SDS011;15815;46.760;19.604;2024-03-02T11:19:43;17.25;;;10.18;;
28627;SDS011;15815;46.760;19.604;2024-03-02T11:24:51;17.85;;;10.30;;
28627;SDS011;15815;46.760;19.604;2024-03-02T11:28:00;16.80;;;10.48;;
28627;SDS011;15815;46.760;19.604;2024-03-02T11:33:12;19.67;;;11.95;;
28627;SDS011;15815;46.760;19.604;2024-03-02T11:35:41;19.17;;;11.80;;
28627;SDS011;15815;46.760;19.604;2024-03-02T11:38:09;17.48;;;10.63;;
28627;SDS011;15815;46.760;19.604;2024-03-02T11:40:35;16.95;;;9.75;;
28627;SDS011;15815;46.760;19.604;2024-03-02T11:43:01;16.63;;;9.75;;
28627;SDS011;15815;46.760;19.604;2024-03-02T11:45:29;14.48;;;9.73;;
28627;SDS011;15815;46.760;19.604;2024-03-02T11:47:55;16.77;;;9.48;;
28627;SDS011;15815;46.760;19.604;2024-03-02T11:50:35;16.27;;;10.13;;
28627;SDS011;15815;46.760;19.604;2024-03-02T11:53:05;15.00;;;9.77;;
28627;SDS011;15815;46.760;19.604;2024-03-02T11:55:31;20.85;;;11.75;;
28627;SDS011;15815;46.760;19.604;2024-03-02T11:58:01;16.90;;;10.45;;
28627;SDS011;15815;46.760;19.604;2024-03-02T12:00:38;18.15;;;10.35;;
28627;SDS011;15815;46.760;19.604;2024-03-02T12:03:05;17.55;;;11.07;;
28627;SDS011;15815;46.760;19.604;2024-03-02T12:05:32;15.27;;;10.10;;
28627;SDS011;15815;46.760;19.604;2024-03-02T12:08:03;18.88;;;11.65;;
28627;SDS011;15815;46.760;19.604;2024-03-02T12:10:30;17.42;;;10.95;;
28627;SDS011;15815;46.760;19.604;2024-03-02T12:15:29;26.02;;;14.05;;
28627;SDS011;15815;46.760;19.604;2024-03-02T12:17:59;27.98;;;14.65;;
28627;SDS011;15815;46.760;19.604;2024-03-02T12:20:28;57.15;;;22.85;;
28627;SDS011;15815;46.760;19.604;2024-03-02T12:22:57;55.40;;;21.77;;
28627;SDS011;15815;46.760;19.604;2024-03-02T12:25:24;101.43;;;31.85;;
28627;SDS011;15815;46.760;19.604;2024-03-02T12:27:51;78.05;;;31.13;;
28627;SDS011;15815;46.760;19.604;2024-03-02T12:30:19;85.47;;;33.70;;
28627;SDS011;15815;46.760;19.604;2024-03-02T12:32:45;35.78;;;19.83;;
28627;SDS011;15815;46.760;19.604;2024-03-02T12:35:11;27.48;;;16.58;;
28627;SDS011;15815;46.760;19.604;2024-03-02T12:40:48;32.72;;;19.08;;
28627;SDS011;15815;46.760;19.604;2024-03-02T12:43:23;33.55;;;18.42;;
28627;SDS011;15815;46.760;19.604;2024-03-02T12:45:52;30.98;;;17.70;;
28627;SDS011;15815;46.760;19.604;2024-03-02T12:48:51;26.13;;;17.05;;
28627;SDS011;15815;46.760;19.604;2024-03-02T13:06:49;35.10;;;19.90;;
28627;SDS011;15815;46.760;19.604;2024-03-02T13:09:15;36.15;;;19.77;;
28627;SDS011;15815;46.760;19.604;2024-03-02T13:14:44;30.95;;;19.70;;
28627;SDS011;15815;46.760;19.604;2024-03-02T13:17:13;33.20;;;19.67;;
28627;SDS011;15815;46.760;19.604;2024-03-02T13:19:43;35.10;;;20.17;;
28627;SDS011;15815;46.760;19.604;2024-03-02T13:25:04;30.20;;;18.55;;
28627;SDS011;15815;46.760;19.604;2024-03-02T13:27:31;33.83;;;20.48;;
28627;SDS011;15815;46.760;19.604;2024-03-02T13:32:29;31.92;;;20.45;;
28627;SDS011;15815;46.760;19.604;2024-03-02T13:34:57;37.05;;;22.45;;
28627;SDS011;15815;46.760;19.604;2024-03-02T13:37:23;37.00;;;23.55;;
28627;SDS011;15815;46.760;19.604;2024-03-02T13:39:48;38.45;;;23.75;;
28627;SDS011;15815;46.760;19.604;2024-03-02T13:42:14;38.35;;;22.67;;
28627;SDS011;15815;46.760;19.604;2024-03-02T13:50:28;41.08;;;24.35;;
28627;SDS011;15815;46.760;19.604;2024-03-02T13:53:09;49.80;;;26.35;;
28627;SDS011;15815;46.760;19.604;2024-03-02T13:55:35;48.50;;;26.23;;
28627;SDS011;15815;46.760;19.604;2024-03-02T13:58:01;44.03;;;24.05;;
28627;SDS011;15815;46.760;19.604;2024-03-02T14:00:44;43.42;;;25.40;;
28627;SDS011;15815;46.760;19.604;2024-03-02T14:03:10;44.28;;;27.27;;
28627;SDS011;15815;46.760;19.604;2024-03-02T14:05:37;44.90;;;27.55;;
28627;SDS011;15815;46.760;19.604;2024-03-02T14:08:10;46.50;;;26.05;;
28627;SDS011;15815;46.760;19.604;2024-03-02T14:10:36;48.13;;;26.98;;
28627;SDS011;15815;46.760;19.604;2024-03-02T14:13:01;46.72;;;26.90;;
28627;SDS011;15815;46.760;19.604;2024-03-02T14:15:27;44.67;;;25.33;;
28627;SDS011;15815;46.760;19.604;2024-03-02T14:17:54;46.20;;;26.25;;
28627;SDS011;15815;46.760;19.604;2024-03-02T14:20:19;47.85;;;27.08;;
28627;SDS011;15815;46.760;19.604;2024-03-02T14:22:45;43.47;;;25.55;;
28627;SDS011;15815;46.760;19.604;2024-03-02T14:25:21;49.70;;;27.30;;
28627;SDS011;15815;46.760;19.604;2024-03-02T14:27:47;44.75;;;27.58;;
28627;SDS011;15815;46.760;19.604;2024-03-02T14:30:13;45.05;;;25.58;;
28627;SDS011;15815;46.760;19.604;2024-03-02T14:32:40;49.10;;;27.80;;
28627;SDS011;15815;46.760;19.604;2024-03-02T14:35:06;40.25;;;24.45;;
28627;SDS011;15815;46.760;19.604;2024-03-02T14:40:26;38.80;;;24.02;;
28627;SDS011;15815;46.760;19.604;2024-03-02T14:43:02;42.00;;;25.58;;
28627;SDS011;15815;46.760;19.604;2024-03-02T14:45:28;42.92;;;25.88;;
28627;SDS011;15815;46.760;19.604;2024-03-02T14:47:53;41.38;;;24.58;;
28627;SDS011;15815;46.760;19.604;2024-03-02T14:50:19;43.53;;;24.52;;
28627;SDS011;15815;46.760;19.604;2024-03-02T14:52:45;49.08;;;26.58;;
28627;SDS011;15815;46.760;19.604;2024-03-02T14:55:11;44.75;;;27.65;;
28627;SDS011;15815;46.760;19.604;2024-03-02T14:57:45;39.38;;;24.15;;
28627;SDS011;15815;46.760;19.604;2024-03-02T15:00:11;44.60;;;26.88;;
28627;SDS011;15815;46.760;19.604;2024-03-02T15:02:37;44.00;;;26.00;;
28627;SDS011;15815;46.760;19.604;2024-03-02T15:05:12;43.42;;;24.13;;
28627;SDS011;15815;46.760;19.604;2024-03-02T15:07:38;43.13;;;25.30;;
28627;SDS011;15815;46.760;19.604;2024-03-02T15:10:04;73.72;;;36.35;;
28627;SDS011;15815;46.760;19.604;2024-03-02T15:12:30;45.25;;;27.52;;
28627;SDS011;15815;46.760;19.604;2024-03-02T15:14:56;44.75;;;27.25;;
28627;SDS011;15815;46.760;19.604;2024-03-02T15:17:22;43.47;;;25.73;;
28627;SDS011;15815;46.760;19.604;2024-03-02T15:19:47;46.67;;;26.20;;
28627;SDS011;15815;46.760;19.604;2024-03-02T15:22:13;42.35;;;25.40;;
28627;SDS011;15815;46.760;19.604;2024-03-02T15:24:38;38.33;;;23.15;;
28627;SDS011;15815;46.760;19.604;2024-03-02T15:27:09;41.95;;;26.55;;
28627;SDS011;15815;46.760;19.604;2024-03-02T15:29:35;47.80;;;27.47;;
28627;SDS011;15815;46.760;19.604;2024-03-02T15:32:01;58.72;;;29.98;;
28627;SDS011;15815;46.760;19.604;2024-03-02T15:34:38;178.93;;;64.75;;
28627;SDS011;15815;46.760;19.604;2024-03-02T15:37:04;187.38;;;66.68;;
28627;SDS011;15815;46.760;19.604;2024-03-02T15:39:30;158.73;;;59.67;;
28627;SDS011;15815;46.760;19.604;2024-03-02T15:41:55;87.72;;;42.97;;
28627;SDS011;15815;46.760;19.604;2024-03-02T15:44:22;58.72;;;32.92;;
28627;SDS011;15815;46.760;19.604;2024-03-02T15:46:48;52.58;;;30.65;;
28627;SDS011;15815;46.760;19.604;2024-03-02T15:49:14;43.88;;;24.77;;
28627;SDS011;15815;46.760;19.604;2024-03-02T15:51:40;41.67;;;24.33;;
28627;SDS011;15815;46.760;19.604;2024-03-02T15:54:06;43.25;;;24.92;;
28627;SDS011;15815;46.760;19.604;2024-03-02T15:56:32;39.05;;;23.55;;
28627;SDS011;15815;46.760;19.604;2024-03-02T16:01:28;49.27;;;26.30;;